CheckWX is a tool to help pilots better visualize weather data.  It is not intended as a substitute for an official pre-flight weather briefing.

17:02:12 UTC

RPVD TAF
Sibulan Airport
Dumaguete City, Philippines
TAF COR RPVD 261100Z 2612/2712 04008KT 9999 FEW015 TEMPO 2612/2618 29006KT TEMPO 2618/2624 SCT015 BKN080 TEMPO 2700/2706 07014KT -SHRA SCT015 OVC080

Mar-26@
12:00 UTC

Mar-26 @ 12:00 UTC

Mar-27@
12:00 UTC

Mar-27 @ 12:00 UTC

TAF COR RPVD 261100Z 2612/2712 04008KT 9999 FEW015
Wind
  • 040° at 8 KTS
Cloud Levels
  • Few at 1,500' AGL

Mar-26@
12:00 UTC

Mar-26 @ 12:00 UTC

Mar-26@
18:00 UTC

Mar-26 @ 18:00 UTC

TEMPO 2612/2618 29006KT

Temporary

Temporary Changes expected for less than half the time period

Wind
  • 290° at 6 KTS

Mar-26@
18:00 UTC

Mar-26 @ 18:00 UTC

Mar-27@
00:00 UTC

Mar-27 @ 00:00 UTC

TEMPO 2618/2624 SCT015 BKN080

Temporary

Temporary Changes expected for less than half the time period

Cloud Levels
  • Scattered at 1,500' AGL
  • Broken at 8,000' AGL

Mar-27@
00:00 UTC

Mar-27 @ 00:00 UTC

Mar-27@
06:00 UTC

Mar-27 @ 06:00 UTC

TEMPO 2700/2706 07014KT -SHRA SCT015 OVC080

Temporary

Temporary Changes expected for less than half the time period

Wind
  • 070° at 14 KTS
Conditions
Light Rain
Cloud Levels
  • Scattered at 1,500' AGL
  • Overcast at 8,000' AGL